createdAt,value
2022-10-11T00:03:21.750Z,9.00
2022-10-11T00:08:24.384Z,9.00
2022-10-11T00:13:28.051Z,8.30
2022-10-11T00:18:30.989Z,8.60
2022-10-11T00:23:34.261Z,8.50
2022-10-11T00:28:37.978Z,8.60
2022-10-11T00:33:40.828Z,8.60
2022-10-11T00:38:45.008Z,9.50
2022-10-11T00:43:47.916Z,9.00
2022-10-11T00:49:12.511Z,9.90
2022-10-11T00:54:19.006Z,9.00
2022-10-11T00:59:26.468Z,9.00
2022-10-11T01:04:29.144Z,9.70
2022-10-11T01:09:32.175Z,10.30
2022-10-11T01:14:37.821Z,8.90
2022-10-11T01:19:58.461Z,8.90
2022-10-11T01:25:27.826Z,10.60
2022-10-11T01:30:33.291Z,11.10
2022-10-11T01:35:47.101Z,9.40
2022-10-11T01:41:06.957Z,10.40
2022-10-11T01:46:11.078Z,11.10
2022-10-11T01:51:14.161Z,9.80
2022-10-11T01:56:49.328Z,10.40
2022-10-11T02:02:10.827Z,10.80
2022-10-11T02:07:39.790Z,12.40
2022-10-11T02:12:47.959Z,11.60
2022-10-11T02:17:56.375Z,11.20
2022-10-11T02:23:08.920Z,13.30
2022-10-11T02:28:16.669Z,11.80
2022-10-11T02:33:25.318Z,12.80
2022-10-11T02:38:34.545Z,12.20
2022-10-11T02:43:41.631Z,12.80
2022-10-11T02:48:44.238Z,12.40
2022-10-11T02:53:46.919Z,11.70
2022-10-11T02:58:49.712Z,15.90
2022-10-11T03:03:52.424Z,15.10
2022-10-11T03:08:55.075Z,12.30
2022-10-11T03:13:57.819Z,13.70
2022-10-11T03:19:00.448Z,12.80
2022-10-11T03:24:03.518Z,11.50
2022-10-11T03:29:06.196Z,12.90
2022-10-11T03:34:09.406Z,13.90
2022-10-11T03:44:14.776Z,13.80
2022-10-11T03:49:17.432Z,14.10
2022-10-11T03:54:20.113Z,12.00
2022-10-11T03:59:22.743Z,12.50
2022-10-11T04:04:25.533Z,12.90
2022-10-11T04:09:28.602Z,13.60
2022-10-11T04:19:34.126Z,14.40
2022-10-11T04:24:36.828Z,12.10
2022-10-11T04:29:39.464Z,13.70
2022-10-11T04:34:42.198Z,12.70
2022-10-11T04:39:45.351Z,13.40
2022-10-11T04:44:48.604Z,12.90
2022-10-11T04:49:51.275Z,11.50
2022-10-11T04:54:53.920Z,13.60
2022-10-11T04:59:56.619Z,13.20
2022-10-11T05:04:59.575Z,14.10
2022-10-11T05:10:02.606Z,15.70
2022-10-11T05:15:06.429Z,15.40
2022-10-11T05:20:10.087Z,13.60
2022-10-11T05:25:12.803Z,14.20
2022-10-11T05:30:15.566Z,14.50
2022-10-11T05:35:18.266Z,15.60
2022-10-11T05:40:20.931Z,15.20
2022-10-11T05:45:23.664Z,13.70
2022-10-11T05:50:26.481Z,15.40
2022-10-11T05:55:29.691Z,13.50
2022-10-11T06:05:36.394Z,14.20
2022-10-11T06:10:39.047Z,13.10
2022-10-11T06:15:41.862Z,15.90
2022-10-11T06:20:44.532Z,14.00
2022-10-11T06:25:59.652Z,13.50
2022-10-11T06:31:04.648Z,13.60
2022-10-11T06:36:11.914Z,13.50
2022-10-11T06:41:20.902Z,15.10
2022-10-11T06:46:25.851Z,12.70
2022-10-11T06:51:30.226Z,12.50
2022-10-11T06:56:33.199Z,11.30
2022-10-11T07:01:37.643Z,11.30
2022-10-11T07:17:35.977Z,7.70
2022-10-11T07:22:45.886Z,8.20
2022-10-11T07:28:02.020Z,6.70
2022-10-11T07:38:35.236Z,6.30
2022-10-11T07:43:38.786Z,6.00
2022-10-11T07:48:41.859Z,4.70
2022-10-11T07:53:53.204Z,4.60
2022-10-11T07:58:59.857Z,4.50
2022-10-11T08:04:05.401Z,4.40
2022-10-11T08:09:19.969Z,4.30
2022-10-11T08:14:42.635Z,3.40
2022-10-11T08:19:45.480Z,3.40
2022-10-11T08:24:53.685Z,3.00
2022-10-11T08:30:02.996Z,3.00
2022-10-11T08:35:07.715Z,2.90
2022-10-11T08:40:16.096Z,2.80
2022-10-11T08:45:30.232Z,2.50
2022-10-11T08:50:33.766Z,2.40
2022-10-11T08:55:45.257Z,2.80
2022-10-11T09:00:53.171Z,2.60
2022-10-11T09:06:08.284Z,2.70
2022-10-11T09:11:23.971Z,3.10
2022-10-11T09:16:47.756Z,2.70
2022-10-11T09:22:30.211Z,2.40
2022-10-11T09:28:01.304Z,2.30
2022-10-11T09:33:15.325Z,2.40
2022-10-11T09:38:24.677Z,2.30
2022-10-11T09:43:27.654Z,2.70
2022-10-11T09:53:56.894Z,2.00
2022-10-11T09:59:10.619Z,2.70
2022-10-11T10:04:17.183Z,2.10
2022-10-11T10:09:24.990Z,2.50
2022-10-11T10:14:30.187Z,2.40
2022-10-11T10:19:44.772Z,1.90
2022-10-11T10:24:50.688Z,2.60
2022-10-11T10:30:08.739Z,1.90
2022-10-11T10:35:34.547Z,2.30
2022-10-11T10:40:57.666Z,1.80
2022-10-11T10:46:16.421Z,2.20
2022-10-11T10:51:38.717Z,2.10
2022-10-11T10:57:04.022Z,2.20
2022-10-11T11:02:40.261Z,2.50
2022-10-11T11:07:52.645Z,2.80
2022-10-11T11:13:38.515Z,2.30
2022-10-11T11:19:54.488Z,2.40
2022-10-11T11:25:22.601Z,2.30
2022-10-11T11:30:41.720Z,2.60
2022-10-11T11:35:53.447Z,2.30
2022-10-11T11:41:02.295Z,2.80
2022-10-11T11:46:13.479Z,2.90
2022-10-11T11:51:31.774Z,3.30
2022-10-11T11:57:03.522Z,2.90
2022-10-11T12:02:45.728Z,2.10
2022-10-11T12:07:51.768Z,2.40
2022-10-11T12:13:38.275Z,2.30
2022-10-11T12:18:49.014Z,2.00
2022-10-11T12:23:56.219Z,2.40
2022-10-11T12:29:25.876Z,2.60
2022-10-11T12:35:18.896Z,2.00
2022-10-11T12:40:41.839Z,2.70
2022-10-11T12:51:38.642Z,3.10
2022-10-11T12:57:40.491Z,2.40
2022-10-11T13:02:52.962Z,3.30
2022-10-11T13:08:05.488Z,2.90
2022-10-11T13:13:21.702Z,3.30
2022-10-11T13:18:27.488Z,2.40
2022-10-11T13:23:39.784Z,2.90
2022-10-11T13:28:44.618Z,2.60
2022-10-11T13:33:48.293Z,12.00
2022-10-11T13:39:01.871Z,5.90
2022-10-11T13:44:04.880Z,7.90
2022-10-11T13:49:48.479Z,4.60
2022-10-11T13:55:03.881Z,3.20
2022-10-11T14:00:43.397Z,3.30
2022-10-11T14:11:42.041Z,7.80
2022-10-11T14:17:11.931Z,4.40
2022-10-11T14:22:37.734Z,4.00
2022-10-11T14:27:49.106Z,4.60
2022-10-11T14:32:54.956Z,6.50
2022-10-11T14:37:57.918Z,4.70
2022-10-11T14:43:00.695Z,3.50
2022-10-11T14:48:04.335Z,3.90
2022-10-11T15:03:14.541Z,5.10
2022-10-11T15:08:17.667Z,3.30
2022-10-11T15:13:20.329Z,2.60
2022-10-11T15:18:23.050Z,6.30
2022-10-11T15:23:25.755Z,3.60
2022-10-11T15:28:32.573Z,4.80
2022-10-11T15:33:35.645Z,4.90
2022-10-11T15:43:42.607Z,5.40
2022-10-11T15:48:46.703Z,5.50
2022-10-11T15:53:49.403Z,9.50
2022-10-11T15:58:52.056Z,11.50
2022-10-11T16:03:54.832Z,13.00
2022-10-11T16:08:57.532Z,9.90
2022-10-11T16:14:00.154Z,7.60
2022-10-11T16:19:02.907Z,4.10
2022-10-11T16:24:05.691Z,8.00
2022-10-11T16:29:08.381Z,7.00
2022-10-11T16:34:11.053Z,9.90
2022-10-11T16:39:16.937Z,11.70
2022-10-11T16:44:21.433Z,21.00
2022-10-11T16:49:27.346Z,13.60
2022-10-11T16:54:31.795Z,17.10
2022-10-11T16:59:35.073Z,13.00
2022-10-11T17:04:37.756Z,12.40
2022-10-11T17:09:44.107Z,14.90
2022-10-11T17:14:48.021Z,16.80
2022-10-11T17:19:50.833Z,25.20
2022-10-11T17:24:53.543Z,27.20
2022-10-11T17:29:56.259Z,24.10
2022-10-11T17:35:02.023Z,26.00
2022-10-11T17:40:06.356Z,30.20
2022-10-11T17:45:09.504Z,33.20
2022-10-11T17:50:12.184Z,31.80
2022-10-11T17:55:15.132Z,45.20
2022-10-11T18:00:17.885Z,55.80
2022-10-11T18:05:20.543Z,50.30
2022-10-11T18:10:23.867Z,48.30
2022-10-11T18:15:30.773Z,32.50
2022-10-11T18:20:33.773Z,31.10
2022-10-11T18:25:36.777Z,29.30
2022-10-11T18:30:47.362Z,32.20
2022-10-11T18:35:50.116Z,52.90
2022-10-11T18:40:52.750Z,84.70
2022-10-11T18:46:06.369Z,54.50
2022-10-11T18:51:16.236Z,67.60
2022-10-11T18:56:26.776Z,69.90
2022-10-11T19:01:38.610Z,74.60
2022-10-11T19:06:43.834Z,45.80
2022-10-11T19:11:46.653Z,36.80
2022-10-11T19:16:51.626Z,26.60
2022-10-11T19:21:54.471Z,20.20
2022-10-11T19:27:02.223Z,26.20
2022-10-11T19:32:05.748Z,33.30
2022-10-11T19:37:13.225Z,29.00
2022-10-11T19:42:15.976Z,20.70
2022-10-11T19:47:18.736Z,23.60
2022-10-11T19:52:21.525Z,22.40
2022-10-11T19:57:24.211Z,37.60
2022-10-11T20:02:26.983Z,27.60
2022-10-11T20:07:29.883Z,35.80
2022-10-11T20:12:34.024Z,39.30
2022-10-11T20:17:49.304Z,37.90
2022-10-11T20:22:53.604Z,32.20
2022-10-11T20:27:56.608Z,31.70
2022-10-11T20:32:59.243Z,32.60
2022-10-11T20:38:02.117Z,25.70
2022-10-11T20:43:04.836Z,25.40
2022-10-11T20:48:07.496Z,31.10
2022-10-11T20:53:15.545Z,31.30
2022-10-11T20:58:19.771Z,27.10
2022-10-11T21:08:25.082Z,17.60
2022-10-11T21:13:27.892Z,17.00
2022-10-11T21:18:30.790Z,19.60
2022-10-11T21:23:34.526Z,17.90
2022-10-11T21:28:38.574Z,16.10
2022-10-11T21:33:43.620Z,16.80
2022-10-11T21:38:46.595Z,16.60
2022-10-11T21:43:49.565Z,15.50
2022-10-11T21:48:52.365Z,18.60
2022-10-11T21:53:57.570Z,24.90
2022-10-11T21:59:00.319Z,23.40
2022-10-11T22:04:05.071Z,24.70
2022-10-11T22:09:08.669Z,22.80
2022-10-11T22:14:12.096Z,23.40
2022-10-11T22:19:15.627Z,17.40
2022-10-11T22:24:18.308Z,16.40
2022-10-11T22:29:20.949Z,15.20
2022-10-11T22:34:23.571Z,13.20
2022-10-11T22:39:26.236Z,11.70
2022-10-11T22:44:28.875Z,10.20
2022-10-11T22:49:31.575Z,11.40
2022-10-11T22:54:34.275Z,11.60
2022-10-11T22:59:36.915Z,9.30
2022-10-11T23:04:39.589Z,10.00
2022-10-11T23:09:42.216Z,9.10
2022-10-11T23:14:44.869Z,8.40
2022-10-11T23:19:47.552Z,9.20
2022-10-11T23:24:50.246Z,9.00
2022-10-11T23:29:52.904Z,10.30
2022-10-11T23:34:55.722Z,9.70
2022-10-11T23:39:58.422Z,9.50
2022-10-11T23:45:01.045Z,10.80
2022-10-11T23:50:04.046Z,9.90
2022-10-11T23:55:06.950Z,10.00
